createdAt,value
2022-09-27T00:00:49.995Z,31.15
2022-09-27T00:03:38.125Z,97.80
2022-09-27T00:06:08.905Z,175.57
2022-09-27T00:08:38.176Z,40.17
2022-09-27T00:11:09.065Z,41.85
2022-09-27T00:13:37.249Z,33.25
2022-09-27T00:16:06.031Z,26.73
2022-09-27T00:18:35.165Z,36.17
2022-09-27T00:21:10.345Z,32.35
2022-09-27T00:23:39.396Z,42.20
2022-09-27T00:26:08.752Z,71.85
2022-09-27T00:28:36.623Z,83.63
2022-09-27T00:31:05.044Z,104.05
2022-09-27T00:33:33.162Z,125.40
2022-09-27T00:36:05.505Z,52.47
2022-09-27T00:38:35.041Z,64.13
2022-09-27T00:41:03.154Z,82.20
2022-09-27T00:43:44.899Z,49.92
2022-09-27T00:46:16.304Z,36.47
2022-09-27T00:48:44.113Z,46.17
2022-09-27T00:51:11.925Z,33.50
2022-09-27T00:53:46.449Z,74.30
2022-09-27T00:56:19.504Z,111.25
2022-09-27T00:58:51.613Z,160.38
2022-09-27T01:01:19.592Z,213.55
2022-09-27T01:03:52.407Z,263.70
2022-09-27T01:06:22.507Z,163.50
2022-09-27T01:08:52.157Z,213.40
2022-09-27T01:11:32.981Z,118.00
2022-09-27T01:14:13.705Z,63.63
2022-09-27T01:16:55.972Z,125.65
2022-09-27T01:19:46.040Z,109.75
2022-09-27T01:22:18.601Z,31.80
2022-09-27T01:25:04.191Z,36.40
2022-09-27T01:28:01.643Z,133.90
2022-09-27T01:30:39.582Z,71.57
2022-09-27T01:33:15.274Z,309.27
2022-09-27T01:35:58.945Z,371.70
2022-09-27T01:38:35.248Z,58.78
2022-09-27T01:41:09.931Z,159.07
2022-09-27T01:43:45.593Z,484.17
2022-09-27T01:46:21.196Z,164.07
2022-09-27T01:48:51.886Z,488.52
2022-09-27T01:51:24.277Z,106.38
2022-09-27T01:53:54.629Z,583.45
2022-09-27T01:56:27.998Z,624.42
2022-09-27T01:59:02.132Z,551.63
2022-09-27T02:01:36.858Z,500.55
2022-09-27T02:04:08.225Z,308.80
2022-09-27T02:06:40.878Z,347.60
2022-09-27T02:09:13.469Z,222.23
2022-09-27T02:11:53.989Z,124.00
2022-09-27T02:14:29.085Z,153.50
2022-09-27T02:17:05.916Z,261.45
2022-09-27T02:19:42.184Z,315.20
2022-09-27T02:22:16.935Z,332.23
2022-09-27T02:24:49.645Z,254.25
2022-09-27T02:27:25.227Z,158.85
2022-09-27T02:30:00.404Z,257.35
2022-09-27T02:32:30.170Z,238.30
2022-09-27T02:35:02.618Z,475.88
2022-09-27T02:37:31.334Z,23.77
2022-09-27T02:39:59.377Z,57.15
2022-09-27T02:42:28.910Z,29.85
2022-09-27T02:44:57.078Z,24.08
2022-09-27T02:47:49.774Z,20.52
2022-09-27T02:50:38.470Z,26.00
2022-09-27T02:53:15.970Z,37.50
2022-09-27T02:55:52.075Z,28.58
2022-09-27T02:58:29.390Z,27.73
2022-09-27T03:01:06.177Z,26.63
2022-09-27T03:03:42.269Z,28.30
2022-09-27T03:06:12.965Z,123.53
2022-09-27T03:08:41.155Z,36.53
2022-09-27T03:11:09.980Z,59.35
2022-09-27T03:14:01.368Z,21.13
2022-09-27T03:16:27.613Z,22.02
2022-09-27T03:18:57.085Z,23.33
2022-09-27T03:21:24.874Z,20.38
2022-09-27T03:23:52.741Z,90.25
2022-09-27T03:26:21.178Z,138.38
2022-09-27T03:28:49.067Z,184.35
2022-09-27T03:31:17.028Z,403.65
2022-09-27T03:33:45.142Z,21.70
2022-09-27T03:36:14.254Z,15.50
2022-09-27T03:38:42.259Z,240.90
2022-09-27T03:41:10.360Z,322.75
2022-09-27T03:43:38.742Z,105.63
2022-09-27T03:46:06.802Z,195.27
2022-09-27T03:48:34.859Z,47.20
2022-09-27T03:51:02.552Z,141.93
2022-09-27T03:53:31.974Z,17.23
2022-09-27T03:56:00.688Z,17.50
2022-09-27T03:58:28.629Z,63.45
2022-09-27T04:00:56.412Z,207.98
2022-09-27T04:03:26.186Z,474.50
2022-09-27T04:05:53.928Z,16.27
2022-09-27T04:08:22.273Z,14.25
2022-09-27T04:10:51.653Z,14.30
2022-09-27T04:13:19.397Z,13.80
2022-09-27T04:15:51.880Z,15.90
2022-09-27T04:18:20.489Z,14.48
2022-09-27T04:20:48.309Z,15.65
2022-09-27T04:23:15.997Z,21.23
2022-09-27T04:25:44.070Z,16.05
2022-09-27T04:28:13.460Z,14.75
2022-09-27T04:30:41.306Z,27.63
2022-09-27T04:33:09.418Z,43.80
2022-09-27T04:35:55.269Z,41.22
2022-09-27T04:38:24.071Z,75.72
2022-09-27T04:40:51.982Z,22.10
2022-09-27T04:43:21.183Z,13.95
2022-09-27T04:45:49.270Z,14.02
2022-09-27T04:48:17.110Z,13.25
2022-09-27T04:50:44.835Z,15.80
2022-09-27T04:53:14.943Z,14.40
2022-09-27T04:55:47.329Z,18.45
2022-09-27T04:58:15.450Z,14.77
2022-09-27T05:00:45.134Z,17.45
2022-09-27T05:03:13.900Z,15.30
2022-09-27T05:05:42.334Z,16.10
2022-09-27T05:08:10.734Z,13.45
2022-09-27T05:10:39.140Z,17.23
2022-09-27T05:13:07.468Z,15.50
2022-09-27T05:15:36.184Z,17.58
2022-09-27T05:18:05.467Z,12.07
2022-09-27T05:20:33.546Z,12.77
2022-09-27T05:23:01.434Z,14.93
2022-09-27T05:25:29.359Z,14.02
2022-09-27T05:27:57.538Z,14.68
2022-09-27T05:30:25.384Z,17.63
2022-09-27T05:32:53.694Z,14.65
2022-09-27T05:35:23.356Z,16.67
2022-09-27T05:37:55.308Z,13.98
2022-09-27T05:43:09.710Z,15.55
2022-09-27T05:45:37.851Z,17.15
2022-09-27T05:48:05.876Z,18.10
2022-09-27T05:50:35.112Z,12.93
2022-09-27T05:53:03.125Z,14.27
2022-09-27T05:55:31.184Z,13.25
2022-09-27T05:58:00.777Z,13.35
2022-09-27T06:00:29.614Z,16.42
2022-09-27T06:02:59.084Z,13.35
2022-09-27T06:05:28.643Z,11.63
2022-09-27T06:08:01.566Z,11.75
2022-09-27T06:10:31.024Z,11.27
2022-09-27T06:13:03.269Z,11.38
2022-09-27T06:15:32.853Z,10.98
2022-09-27T06:18:06.015Z,11.07
2022-09-27T06:20:33.914Z,11.40
2022-09-27T06:23:08.397Z,10.02
2022-09-27T06:25:36.605Z,13.35
2022-09-27T06:28:05.114Z,10.32
2022-09-27T06:30:33.571Z,14.95
2022-09-27T06:33:02.864Z,8.75
2022-09-27T06:35:31.122Z,18.42
2022-09-27T06:37:59.225Z,9.75
2022-09-27T06:40:28.658Z,11.95
2022-09-27T06:43:03.177Z,10.25
2022-09-27T06:45:31.710Z,12.68
2022-09-27T06:48:02.344Z,14.10
2022-09-27T06:50:30.336Z,10.45
2022-09-27T06:52:58.353Z,13.15
2022-09-27T06:55:27.953Z,15.77
2022-09-27T06:58:13.211Z,13.55
2022-09-27T07:00:42.210Z,12.85
2022-09-27T07:03:11.464Z,14.02
2022-09-27T07:05:39.345Z,12.05
2022-09-27T07:08:07.461Z,11.45
2022-09-27T07:10:37.685Z,10.63
2022-09-27T07:13:07.414Z,9.80
2022-09-27T07:15:37.181Z,7.97
2022-09-27T07:18:07.145Z,10.15
2022-09-27T07:20:37.174Z,7.63
2022-09-27T07:23:06.002Z,9.32
2022-09-27T07:25:34.477Z,8.48
2022-09-27T07:28:05.161Z,10.02
2022-09-27T07:30:33.506Z,25.67
2022-09-27T07:33:03.501Z,23.40
2022-09-27T07:35:31.531Z,19.50
2022-09-27T07:38:00.109Z,24.30
2022-09-27T07:40:28.152Z,27.65
2022-09-27T07:42:56.790Z,31.15
2022-09-27T07:45:26.913Z,30.02
2022-09-27T07:47:54.682Z,40.10
2022-09-27T07:50:22.663Z,33.75
2022-09-27T07:52:51.975Z,36.72
2022-09-27T07:55:20.772Z,36.55
2022-09-27T07:57:48.466Z,10.68
2022-09-27T08:00:19.721Z,8.90
2022-09-27T08:02:48.774Z,7.35
2022-09-27T08:05:16.916Z,7.65
2022-09-27T08:07:44.776Z,9.07
2022-09-27T08:10:12.659Z,7.22
2022-09-27T08:12:40.698Z,8.93
2022-09-27T08:15:09.970Z,6.60
2022-09-27T08:17:37.694Z,7.93
2022-09-27T08:20:07.616Z,10.40
2022-09-27T08:22:41.252Z,6.13
2022-09-27T08:25:10.389Z,6.95
2022-09-27T08:27:38.209Z,6.75
2022-09-27T08:30:07.010Z,7.90
2022-09-27T08:32:35.133Z,6.82
2022-09-27T08:35:02.912Z,8.23
2022-09-27T08:37:32.294Z,8.40
2022-09-27T08:40:00.514Z,8.82
2022-09-27T08:42:35.034Z,7.05
2022-09-27T08:45:12.638Z,13.40
2022-09-27T08:47:44.632Z,8.60
2022-09-27T08:52:54.694Z,8.10
2022-09-27T08:55:28.729Z,10.95
2022-09-27T08:57:58.696Z,8.18
2022-09-27T09:00:28.714Z,8.25
2022-09-27T09:02:56.903Z,6.50
2022-09-27T09:05:30.269Z,7.28
2022-09-27T09:08:27.371Z,6.93
2022-09-27T09:11:21.038Z,10.30
2022-09-27T09:14:13.448Z,6.47
2022-09-27T09:16:48.586Z,7.40
2022-09-27T09:19:38.162Z,9.40
2022-09-27T09:22:19.753Z,6.30
2022-09-27T09:25:03.857Z,7.45
2022-09-27T09:27:41.069Z,11.43
2022-09-27T09:30:22.601Z,6.20
2022-09-27T09:33:06.825Z,5.47
2022-09-27T09:35:40.838Z,6.10
2022-09-27T09:38:16.919Z,5.47
2022-09-27T09:40:51.644Z,5.80
2022-09-27T09:43:24.655Z,6.95
2022-09-27T09:45:58.927Z,6.50
2022-09-27T09:48:33.609Z,4.15
2022-09-27T09:51:08.725Z,5.32
2022-09-27T09:53:43.028Z,3.30
2022-09-27T09:56:19.304Z,6.30
2022-09-27T09:58:52.757Z,4.13
2022-09-27T10:01:24.161Z,3.10
2022-09-27T10:03:52.190Z,2.30
2022-09-27T10:06:20.522Z,2.65
2022-09-27T10:08:50.030Z,4.53
2022-09-27T10:11:23.800Z,4.13
2022-09-27T10:13:52.394Z,2.55
2022-09-27T10:16:21.889Z,3.58
2022-09-27T10:18:52.888Z,2.70
2022-09-27T10:21:23.673Z,3.45
2022-09-27T10:24:15.003Z,2.92
2022-09-27T10:26:50.964Z,3.67
2022-09-27T10:29:32.568Z,2.15
2022-09-27T10:32:06.658Z,4.03
2022-09-27T10:34:36.838Z,2.30
2022-09-27T10:37:17.637Z,2.88
2022-09-27T10:39:47.553Z,2.40
2022-09-27T10:42:31.546Z,2.50
2022-09-27T10:45:00.185Z,2.58
2022-09-27T10:47:29.896Z,3.33
2022-09-27T10:50:06.744Z,2.85
2022-09-27T10:52:35.034Z,3.17
2022-09-27T10:55:09.111Z,4.18
2022-09-27T10:57:44.338Z,3.45
2022-09-27T11:00:24.346Z,4.05
2022-09-27T11:02:55.073Z,2.30
2022-09-27T11:05:35.093Z,2.80
2022-09-27T11:08:23.166Z,3.03
2022-09-27T11:11:07.758Z,2.83
2022-09-27T11:13:37.862Z,2.78
2022-09-27T11:16:36.514Z,5.28
2022-09-27T11:19:16.273Z,3.13
2022-09-27T11:21:52.961Z,5.13
2022-09-27T11:24:33.203Z,3.20
2022-09-27T11:27:11.970Z,3.47
2022-09-27T11:29:55.162Z,4.10
2022-09-27T11:32:35.439Z,2.50
2022-09-27T11:35:27.726Z,3.03
2022-09-27T11:38:08.474Z,3.15
2022-09-27T11:40:48.137Z,5.97
2022-09-27T11:43:30.755Z,4.70
2022-09-27T11:46:17.856Z,3.30
2022-09-27T11:49:26.126Z,3.17
2022-09-27T11:52:17.706Z,3.03
2022-09-27T11:55:00.545Z,2.70
2022-09-27T11:57:35.665Z,2.20
2022-09-27T12:00:13.043Z,2.60
2022-09-27T12:03:02.779Z,4.22
2022-09-27T12:05:37.688Z,1.90
2022-09-27T12:08:19.905Z,1.67
2022-09-27T12:10:51.981Z,4.85
2022-09-27T12:13:34.645Z,1.83
2022-09-27T12:16:04.731Z,1.40
2022-09-27T12:18:39.041Z,1.58
2022-09-27T12:21:09.785Z,1.48
2022-09-27T12:23:42.639Z,1.77
2022-09-27T12:26:14.992Z,1.45
2022-09-27T12:28:52.023Z,1.63
2022-09-27T12:31:29.838Z,1.60
2022-09-27T12:34:16.209Z,2.08
2022-09-27T12:36:51.446Z,6.15
2022-09-27T12:39:23.795Z,1.85
2022-09-27T12:42:02.211Z,1.85
2022-09-27T12:44:38.754Z,3.03
2022-09-27T12:47:14.093Z,2.13
2022-09-27T12:49:49.982Z,2.72
2022-09-27T12:52:25.400Z,1.90
2022-09-27T12:55:16.049Z,2.10
2022-09-27T12:57:54.202Z,2.28
2022-09-27T13:00:25.114Z,2.75
2022-09-27T13:03:26.322Z,2.53
2022-09-27T13:06:21.158Z,1.90
2022-09-27T13:09:07.335Z,3.38
2022-09-27T13:11:44.004Z,4.93
2022-09-27T13:14:19.163Z,2.20
2022-09-27T13:16:48.583Z,4.72
2022-09-27T13:19:43.282Z,2.40
2022-09-27T13:22:38.208Z,3.00
2022-09-27T13:25:39.925Z,3.05
2022-09-27T13:28:36.589Z,2.20
2022-09-27T13:31:06.780Z,4.78
2022-09-27T13:33:43.389Z,4.28
2022-09-27T13:36:35.788Z,3.15
2022-09-27T13:42:07.371Z,3.47
2022-09-27T13:44:55.318Z,2.88
2022-09-27T13:47:32.920Z,2.70
2022-09-27T13:50:15.239Z,3.38
2022-09-27T13:52:45.996Z,3.88
2022-09-27T13:55:41.489Z,4.13
2022-09-27T13:58:35.162Z,3.17
2022-09-27T14:01:11.271Z,4.60
2022-09-27T14:03:45.969Z,2.45
2022-09-27T14:06:18.826Z,2.50
2022-09-27T14:08:51.901Z,2.63
2022-09-27T14:11:26.938Z,3.72
2022-09-27T14:13:55.993Z,3.15
2022-09-27T14:16:24.080Z,2.28
2022-09-27T14:18:57.600Z,2.88
2022-09-27T14:21:32.189Z,3.00
2022-09-27T14:24:26.688Z,4.18
2022-09-27T14:27:14.269Z,5.28
2022-09-27T14:29:46.630Z,5.03
2022-09-27T14:32:17.588Z,3.10
2022-09-27T14:34:46.042Z,2.42
2022-09-27T14:37:26.348Z,2.33
2022-09-27T14:40:00.181Z,2.60
2022-09-27T14:42:32.907Z,2.95
2022-09-27T14:45:05.614Z,2.38
2022-09-27T14:47:37.581Z,2.85
2022-09-27T14:50:19.652Z,2.80
2022-09-27T14:52:49.478Z,2.83
2022-09-27T14:55:19.288Z,3.03
2022-09-27T14:57:51.801Z,3.28
2022-09-27T15:00:22.343Z,6.10
2022-09-27T15:02:55.486Z,7.80
2022-09-27T15:05:25.314Z,7.97
2022-09-27T15:07:55.722Z,8.73
2022-09-27T15:10:27.280Z,7.00
2022-09-27T15:12:59.871Z,6.70
2022-09-27T15:15:31.283Z,4.15
2022-09-27T15:18:00.198Z,3.70
2022-09-27T15:20:34.691Z,3.75
2022-09-27T15:23:05.543Z,4.68
2022-09-27T15:25:37.481Z,3.55
2022-09-27T15:28:15.497Z,5.53
2022-09-27T15:30:50.277Z,4.75
2022-09-27T15:33:21.178Z,7.45
2022-09-27T15:35:53.434Z,4.50
2022-09-27T15:41:01.406Z,3.65
2022-09-27T15:43:33.752Z,4.32
2022-09-27T15:46:03.711Z,4.80
2022-09-27T15:48:33.576Z,4.90
2022-09-27T15:51:03.152Z,4.78
2022-09-27T15:53:46.498Z,4.45
2022-09-27T15:56:16.441Z,5.47
2022-09-27T15:58:45.798Z,6.75
2022-09-27T16:01:19.621Z,8.23
2022-09-27T16:03:48.868Z,9.60
2022-09-27T16:06:16.585Z,9.27
2022-09-27T16:08:45.229Z,8.55
2022-09-27T16:11:17.117Z,9.07
2022-09-27T16:13:46.597Z,12.07
2022-09-27T16:16:20.269Z,7.95
2022-09-27T16:18:48.861Z,6.15
2022-09-27T16:21:17.558Z,7.72
2022-09-27T16:23:45.242Z,10.88
2022-09-27T16:26:13.753Z,4.25
2022-09-27T16:28:41.796Z,14.05
2022-09-27T16:31:11.361Z,4.78
2022-09-27T16:33:39.635Z,3.88
2022-09-27T16:36:14.270Z,7.40
2022-09-27T16:38:42.384Z,5.35
2022-09-27T16:41:10.516Z,3.80
2022-09-27T16:43:38.197Z,6.28
2022-09-27T16:46:09.325Z,5.43
2022-09-27T16:48:38.924Z,6.13
2022-09-27T16:51:25.329Z,5.68
2022-09-27T16:53:53.459Z,5.40
2022-09-27T16:56:21.348Z,5.40
2022-09-27T16:58:49.153Z,4.85
2022-09-27T17:01:17.680Z,4.75
2022-09-27T17:03:52.604Z,3.15
2022-09-27T17:06:24.422Z,5.53
2022-09-27T17:08:52.641Z,5.22
2022-09-27T17:11:21.566Z,4.82
2022-09-27T17:13:50.152Z,4.15
2022-09-27T17:16:18.042Z,8.00
2022-09-27T17:18:47.216Z,6.45
2022-09-27T17:21:15.877Z,7.90
2022-09-27T17:23:43.801Z,10.00
2022-09-27T17:26:17.212Z,7.82
2022-09-27T17:28:46.365Z,8.38
2022-09-27T17:31:17.514Z,8.38
2022-09-27T17:33:48.805Z,28.52
2022-09-27T17:36:19.167Z,38.53
2022-09-27T17:38:48.452Z,7.90
2022-09-27T17:41:18.291Z,10.75
2022-09-27T17:43:49.886Z,7.22
2022-09-27T17:46:19.969Z,6.35
2022-09-27T17:49:07.954Z,6.03
2022-09-27T17:51:38.139Z,7.68
2022-09-27T17:54:08.006Z,12.88
2022-09-27T17:56:40.043Z,12.75
2022-09-27T17:59:10.446Z,10.45
2022-09-27T18:01:39.307Z,9.50
2022-09-27T18:04:10.886Z,13.57
2022-09-27T18:06:41.055Z,15.70
2022-09-27T18:09:10.641Z,11.40
2022-09-27T18:11:39.690Z,13.50
2022-09-27T18:14:10.428Z,15.18
2022-09-27T18:16:40.957Z,12.23
2022-09-27T18:19:12.833Z,13.85
2022-09-27T18:21:40.632Z,15.82
2022-09-27T18:24:08.873Z,18.10
2022-09-27T18:26:38.647Z,18.23
2022-09-27T18:29:08.905Z,21.45
2022-09-27T18:31:37.402Z,14.10
2022-09-27T18:34:05.327Z,11.70
2022-09-27T18:36:34.422Z,11.35
2022-09-27T18:39:03.898Z,11.50
2022-09-27T18:41:33.683Z,9.18
2022-09-27T18:44:03.389Z,9.43
2022-09-27T18:46:35.806Z,7.70
2022-09-27T18:49:05.636Z,6.72
2022-09-27T18:51:37.467Z,6.30
2022-09-27T18:54:09.526Z,7.40
2022-09-27T18:56:39.394Z,8.20
2022-09-27T18:59:09.468Z,7.75
2022-09-27T19:01:39.670Z,8.45
2022-09-27T19:04:09.189Z,13.95
2022-09-27T19:06:39.253Z,9.75
2022-09-27T19:09:08.131Z,9.10
2022-09-27T19:11:36.230Z,12.32
2022-09-27T19:14:04.187Z,13.38
2022-09-27T19:16:32.191Z,12.95
2022-09-27T19:19:00.418Z,14.38
2022-09-27T19:21:30.407Z,17.90
2022-09-27T19:23:59.752Z,14.77
2022-09-27T19:26:28.140Z,11.10
2022-09-27T19:28:58.729Z,12.82
2022-09-27T19:31:29.437Z,15.50
2022-09-27T19:34:00.361Z,16.02
2022-09-27T19:36:29.028Z,12.02
2022-09-27T19:38:58.559Z,15.88
2022-09-27T19:41:28.876Z,16.38
2022-09-27T19:43:57.567Z,19.55
2022-09-27T19:46:26.662Z,14.60
2022-09-27T19:48:56.055Z,18.02
2022-09-27T19:51:25.273Z,19.88
2022-09-27T19:53:54.152Z,24.00
2022-09-27T19:56:22.798Z,21.35
2022-09-27T19:58:52.076Z,20.35
2022-09-27T20:01:22.139Z,18.20
2022-09-27T20:03:52.178Z,18.67
2022-09-27T20:06:21.619Z,18.33
2022-09-27T20:08:52.404Z,20.58
2022-09-27T20:11:21.929Z,16.23
2022-09-27T20:13:52.805Z,18.13
2022-09-27T20:16:22.616Z,20.15
2022-09-27T20:18:52.978Z,17.35
2022-09-27T20:21:22.309Z,18.25
2022-09-27T20:23:51.353Z,18.27
2022-09-27T20:26:21.157Z,17.20
2022-09-27T20:28:50.604Z,15.75
2022-09-27T20:31:22.204Z,16.45
2022-09-27T20:33:51.055Z,16.02
2022-09-27T20:36:21.873Z,15.90
2022-09-27T20:38:51.374Z,13.50
2022-09-27T20:41:21.622Z,13.27
2022-09-27T20:43:53.071Z,12.13
2022-09-27T20:46:24.439Z,10.63
2022-09-27T20:48:53.772Z,9.07
2022-09-27T20:51:22.390Z,9.48
2022-09-27T20:53:51.854Z,9.50
2022-09-27T20:56:21.473Z,11.32
2022-09-27T20:58:49.917Z,12.52
2022-09-27T21:01:19.961Z,11.05
2022-09-27T21:03:53.677Z,11.60
2022-09-27T21:06:22.968Z,13.30
2022-09-27T21:08:51.430Z,12.85
2022-09-27T21:11:20.692Z,13.77
2022-09-27T21:13:50.270Z,12.23
2022-09-27T21:16:19.604Z,11.43
2022-09-27T21:18:51.569Z,8.55
2022-09-27T21:23:48.890Z,13.32
2022-09-27T21:26:18.157Z,9.43
2022-09-27T21:28:48.589Z,10.30
2022-09-27T21:31:22.490Z,9.77
2022-09-27T21:33:54.543Z,11.00
2022-09-27T21:36:24.221Z,12.97
2022-09-27T21:38:52.469Z,10.95
2022-09-27T21:41:20.461Z,10.20
2022-09-27T21:43:49.929Z,9.27
2022-09-27T21:46:19.710Z,9.70
2022-09-27T21:48:49.479Z,11.68
2022-09-27T21:51:20.742Z,8.98
2022-09-27T21:53:52.142Z,9.88
2022-09-27T21:56:20.499Z,8.45
2022-09-27T21:58:48.545Z,10.70
2022-09-27T22:01:19.090Z,9.35
2022-09-27T22:03:48.027Z,8.23
2022-09-27T22:06:18.694Z,11.07
2022-09-27T22:08:48.400Z,8.68
2022-09-27T22:11:18.101Z,7.43
2022-09-27T22:13:46.251Z,9.30
2022-09-27T22:16:16.577Z,10.07
2022-09-27T22:18:45.141Z,8.02
2022-09-27T22:21:14.805Z,7.78
2022-09-27T22:23:45.453Z,11.63
2022-09-27T22:26:14.551Z,7.80
2022-09-27T22:28:42.957Z,6.32
2022-09-27T22:31:11.989Z,8.15
2022-09-27T22:33:39.732Z,5.43
2022-09-27T22:36:08.024Z,7.13
2022-09-27T22:38:36.120Z,7.80
2022-09-27T22:41:05.350Z,8.55
2022-09-27T22:43:33.142Z,6.90
2022-09-27T22:46:01.434Z,8.55
2022-09-27T22:48:30.643Z,5.78
2022-09-27T22:50:59.696Z,6.22
2022-09-27T22:53:29.043Z,6.75
2022-09-27T22:56:01.827Z,4.80
2022-09-27T22:58:34.205Z,6.97
2022-09-27T23:01:08.817Z,6.55
2022-09-27T23:03:37.287Z,6.40
2022-09-27T23:06:06.977Z,10.02
2022-09-27T23:08:36.073Z,5.82
2022-09-27T23:11:06.309Z,5.40
2022-09-27T23:13:37.480Z,7.88
2022-09-27T23:16:07.862Z,5.57
2022-09-27T23:18:37.185Z,5.28
2022-09-27T23:21:08.222Z,5.68
2022-09-27T23:23:38.011Z,5.72
2022-09-27T23:26:08.356Z,4.50
2022-09-27T23:28:37.767Z,4.15
2022-09-27T23:31:08.264Z,4.72
2022-09-27T23:33:36.906Z,5.70
2022-09-27T23:36:05.063Z,4.00
2022-09-27T23:38:33.883Z,8.45
2022-09-27T23:41:02.019Z,3.78
2022-09-27T23:43:30.040Z,4.55
2022-09-27T23:45:59.414Z,6.30
2022-09-27T23:48:27.708Z,4.22
2022-09-27T23:50:56.711Z,6.95
2022-09-27T23:53:25.470Z,8.43
2022-09-27T23:56:03.694Z,4.68
2022-09-27T23:58:34.056Z,4.78
